createdAt,value
2023-05-19T00:04:40.157Z,9.19
2023-05-19T00:10:02.701Z,9.20
2023-05-19T00:15:24.441Z,9.12
2023-05-19T00:20:47.820Z,9.06
2023-05-19T00:26:10.019Z,9.15
2023-05-19T00:31:36.751Z,9.27
2023-05-19T00:37:00.682Z,9.21
2023-05-19T00:42:22.413Z,9.19
2023-05-19T00:47:44.407Z,9.10
2023-05-19T00:53:06.034Z,9.08
2023-05-19T00:58:31.551Z,9.00
2023-05-19T01:03:53.722Z,8.98
2023-05-19T01:09:16.767Z,9.03
2023-05-19T01:14:38.473Z,9.00
2023-05-19T01:20:22.089Z,8.91
2023-05-19T01:25:55.663Z,8.81
2023-05-19T01:31:18.748Z,8.74
2023-05-19T01:36:42.109Z,8.83
2023-05-19T01:42:04.596Z,8.96
2023-05-19T01:47:26.537Z,9.01
2023-05-19T01:52:48.604Z,9.02
2023-05-19T01:58:41.686Z,8.96
2023-05-19T02:04:18.702Z,8.95
2023-05-19T02:09:56.306Z,9.10
2023-05-19T02:15:21.904Z,9.20
2023-05-19T02:20:43.722Z,9.27
2023-05-19T02:26:05.533Z,9.32
2023-05-19T02:31:31.910Z,9.25
2023-05-19T02:36:53.993Z,9.11
2023-05-19T02:42:18.257Z,9.12
2023-05-19T02:47:41.687Z,9.22
2023-05-19T02:53:04.430Z,9.26
2023-05-19T02:58:26.013Z,9.30
2023-05-19T03:03:47.649Z,9.34
2023-05-19T03:09:10.679Z,9.24
2023-05-19T03:14:34.086Z,9.11
2023-05-19T03:19:55.925Z,9.19
2023-05-19T03:25:17.682Z,9.28
2023-05-19T03:30:39.531Z,9.32
2023-05-19T03:36:08.810Z,9.24
2023-05-19T03:41:33.059Z,9.19
2023-05-19T03:46:56.053Z,9.17
2023-05-19T03:52:38.709Z,9.14
2023-05-19T03:58:14.690Z,9.07
2023-05-19T04:03:36.409Z,9.19
2023-05-19T04:08:58.142Z,9.31
2023-05-19T04:14:20.474Z,9.38
2023-05-19T04:19:42.226Z,9.43
2023-05-19T04:25:05.169Z,9.43
2023-05-19T04:30:28.703Z,9.40
2023-05-19T04:35:51.816Z,9.48
2023-05-19T04:41:13.987Z,9.52
2023-05-19T04:46:36.227Z,9.50
2023-05-19T04:51:58.648Z,9.54
2023-05-19T04:57:22.934Z,9.61
2023-05-19T05:02:45.476Z,9.72
2023-05-19T05:08:07.817Z,9.70
2023-05-19T05:13:33.169Z,9.81
2023-05-19T05:18:56.128Z,9.79
2023-05-19T05:24:18.520Z,9.77
2023-05-19T05:29:44.803Z,9.78
2023-05-19T05:35:07.468Z,9.81
2023-05-19T05:40:30.114Z,9.87
2023-05-19T05:45:52.569Z,9.97
2023-05-19T05:51:15.587Z,10.06
2023-05-19T05:56:37.514Z,10.08
2023-05-19T06:02:01.070Z,10.17
2023-05-19T06:07:24.583Z,10.31
2023-05-19T06:12:46.514Z,10.42
2023-05-19T06:18:09.004Z,10.50
2023-05-19T06:23:31.281Z,10.60
2023-05-19T06:28:53.483Z,10.65
2023-05-19T06:34:17.790Z,10.67
2023-05-19T06:39:40.204Z,10.83
2023-05-19T06:45:02.145Z,10.92
2023-05-19T06:50:25.340Z,10.95
2023-05-19T06:55:58.753Z,11.06
2023-05-19T07:01:22.850Z,11.09
2023-05-19T07:06:50.386Z,11.17
2023-05-19T07:12:12.546Z,11.20
2023-05-19T07:17:34.614Z,11.19
2023-05-19T07:22:56.310Z,11.29
2023-05-19T07:28:18.278Z,11.42
2023-05-19T07:33:39.866Z,11.59
2023-05-19T07:39:01.646Z,11.70
2023-05-19T07:44:23.703Z,11.77
2023-05-19T07:49:45.749Z,11.92
2023-05-19T07:55:07.737Z,12.06
2023-05-19T08:00:29.770Z,12.08
2023-05-19T08:05:51.617Z,12.12
2023-05-19T08:11:13.424Z,12.09
2023-05-19T08:16:35.303Z,12.25
2023-05-19T08:21:57.685Z,12.29
2023-05-19T08:27:21.649Z,12.37
2023-05-19T08:32:43.592Z,12.35
2023-05-19T08:38:05.507Z,12.31
2023-05-19T08:43:30.266Z,12.30
2023-05-19T08:48:58.172Z,12.28
2023-05-19T08:54:20.944Z,12.31
2023-05-19T08:59:43.954Z,12.29
2023-05-19T09:05:06.165Z,12.37
2023-05-19T09:10:29.225Z,12.45
2023-05-19T09:15:52.938Z,12.69
2023-05-19T09:21:16.460Z,12.83
2023-05-19T09:26:42.127Z,12.85
2023-05-19T09:32:05.474Z,12.90
2023-05-19T09:37:28.054Z,12.89
2023-05-19T09:42:49.696Z,12.95
2023-05-19T09:48:11.777Z,12.94
2023-05-19T09:53:35.014Z,12.93
2023-05-19T09:58:57.369Z,13.03
2023-05-19T10:04:18.886Z,13.11
2023-05-19T10:09:41.847Z,13.13
2023-05-19T10:15:03.631Z,13.16
2023-05-19T10:20:27.039Z,13.22
2023-05-19T10:25:49.633Z,13.22
2023-05-19T10:31:13.841Z,13.25
2023-05-19T10:36:48.580Z,13.33
2023-05-19T10:42:19.741Z,13.46
2023-05-19T10:47:42.188Z,13.48
2023-05-19T10:53:03.710Z,13.54
2023-05-19T10:58:43.890Z,13.60
2023-05-19T11:04:12.389Z,13.62
2023-05-19T11:09:40.905Z,13.70
2023-05-19T11:15:03.332Z,13.84
2023-05-19T11:20:26.940Z,14.07
2023-05-19T11:25:54.007Z,14.28
2023-05-19T11:31:16.172Z,14.54
2023-05-19T11:36:40.159Z,14.68
2023-05-19T11:42:02.188Z,14.67
2023-05-19T11:47:24.090Z,14.63
2023-05-19T11:52:47.543Z,14.51
2023-05-19T11:58:09.373Z,14.43
2023-05-19T12:03:33.306Z,14.46
2023-05-19T12:08:55.570Z,14.47
2023-05-19T12:14:18.097Z,14.40
2023-05-19T12:19:41.722Z,14.45
2023-05-19T12:25:05.365Z,14.46
2023-05-19T12:30:31.966Z,14.48
2023-05-19T12:35:54.624Z,14.55
2023-05-19T12:41:17.519Z,14.53
2023-05-19T12:46:40.531Z,14.66
2023-05-19T12:52:11.903Z,14.79
2023-05-19T12:57:36.504Z,14.82
2023-05-19T13:03:06.812Z,14.88
2023-05-19T13:08:29.900Z,14.91
2023-05-19T13:13:51.949Z,14.95
2023-05-19T13:19:24.867Z,15.03
2023-05-19T13:24:48.364Z,15.01
2023-05-19T13:30:10.453Z,15.00
2023-05-19T13:35:37.659Z,14.92
2023-05-19T13:40:59.958Z,15.01
2023-05-19T13:46:29.511Z,15.05
2023-05-19T13:51:58.852Z,15.01
2023-05-19T13:57:24.501Z,15.04
2023-05-19T14:02:46.592Z,14.99
2023-05-19T14:08:09.459Z,15.10
2023-05-19T14:13:36.273Z,15.21
2023-05-19T14:19:04.312Z,15.20
2023-05-19T14:24:26.697Z,15.16
2023-05-19T14:29:49.247Z,15.17
2023-05-19T14:35:14.374Z,15.07
2023-05-19T14:40:41.461Z,14.99
2023-05-19T14:46:03.398Z,14.99
2023-05-19T14:51:28.260Z,14.95
2023-05-19T14:56:50.400Z,14.88
2023-05-19T15:02:12.830Z,14.91
2023-05-19T15:07:35.269Z,14.87
2023-05-19T15:12:57.899Z,14.80
2023-05-19T15:18:19.763Z,14.74
2023-05-19T15:23:41.441Z,14.73
2023-05-19T15:29:03.898Z,14.63
2023-05-19T15:34:26.518Z,14.58
2023-05-19T15:39:48.743Z,14.56
2023-05-19T15:45:10.544Z,14.56
2023-05-19T15:50:33.443Z,14.48
2023-05-19T15:55:57.660Z,14.44
2023-05-19T16:01:19.974Z,14.31
2023-05-19T16:06:41.907Z,14.20
2023-05-19T16:12:04.237Z,14.10
2023-05-19T16:17:28.766Z,14.04
2023-05-19T16:22:50.607Z,14.00
2023-05-19T16:28:14.849Z,13.86
2023-05-19T16:33:36.814Z,13.81
2023-05-19T16:38:59.021Z,13.77
2023-05-19T16:44:20.941Z,13.69
2023-05-19T16:49:42.499Z,13.60
2023-05-19T16:55:05.883Z,13.56
2023-05-19T17:00:29.519Z,13.51
2023-05-19T17:05:51.372Z,13.48
2023-05-19T17:11:13.904Z,13.46
2023-05-19T17:16:36.478Z,13.40
2023-05-19T17:21:58.351Z,13.32
2023-05-19T17:27:20.486Z,13.29
2023-05-19T17:32:42.363Z,13.23
2023-05-19T17:38:07.969Z,13.18
2023-05-19T17:43:30.081Z,13.12
2023-05-19T17:48:53.652Z,13.12
2023-05-19T17:54:15.957Z,13.09
2023-05-19T17:59:38.013Z,13.02
2023-05-19T18:05:01.238Z,12.96
2023-05-19T18:10:25.853Z,12.87
2023-05-19T18:15:48.177Z,12.81
2023-05-19T18:21:14.659Z,12.77
2023-05-19T18:26:42.083Z,12.79
2023-05-19T18:32:04.671Z,12.76
2023-05-19T18:37:27.335Z,12.69
2023-05-19T18:42:49.202Z,12.65
2023-05-19T18:48:11.342Z,12.59
2023-05-19T18:53:34.827Z,12.54
2023-05-19T18:58:57.591Z,12.56
2023-05-19T19:04:20.608Z,12.62
2023-05-19T19:09:43.994Z,12.58
2023-05-19T19:15:06.603Z,12.46
2023-05-19T19:20:28.791Z,12.37
2023-05-19T19:25:51.058Z,12.31
2023-05-19T19:31:12.639Z,12.24
2023-05-19T19:36:37.611Z,12.19
2023-05-19T19:41:59.783Z,12.15
2023-05-19T19:47:21.857Z,12.14
2023-05-19T19:52:46.845Z,12.16
2023-05-19T19:58:08.990Z,12.20
2023-05-19T20:03:31.949Z,12.29
2023-05-19T20:08:53.707Z,12.26
2023-05-19T20:14:18.926Z,12.25
2023-05-19T20:19:40.756Z,12.16
2023-05-19T20:25:04.163Z,12.04
2023-05-19T20:30:29.259Z,11.97
2023-05-19T20:35:51.388Z,11.89
2023-05-19T20:41:13.993Z,11.86
2023-05-19T20:46:35.770Z,11.86
2023-05-19T20:51:59.983Z,11.79
2023-05-19T20:57:26.140Z,11.79
2023-05-19T21:02:50.344Z,11.89
2023-05-19T21:08:16.893Z,11.92
2023-05-19T21:13:39.425Z,11.87
2023-05-19T21:19:02.092Z,11.78
2023-05-19T21:24:23.967Z,11.77
2023-05-19T21:29:46.190Z,11.76
2023-05-19T21:35:08.227Z,11.75
2023-05-19T21:40:30.573Z,11.70
2023-05-19T21:45:52.319Z,11.69
2023-05-19T21:51:14.226Z,11.70
2023-05-19T21:56:36.390Z,11.68
2023-05-19T22:01:58.926Z,11.61
2023-05-19T22:07:26.976Z,11.65
2023-05-19T22:12:49.119Z,11.64
2023-05-19T22:18:11.897Z,11.64
2023-05-19T22:23:33.868Z,11.68
2023-05-19T22:28:55.808Z,11.69
2023-05-19T22:34:19.924Z,11.62
2023-05-19T22:39:41.944Z,11.60
2023-05-19T22:45:03.978Z,11.67
2023-05-19T22:50:26.157Z,11.66
2023-05-19T22:55:47.709Z,11.63
2023-05-19T23:01:09.636Z,11.59
2023-05-19T23:06:31.670Z,11.61
2023-05-19T23:11:56.561Z,11.55
2023-05-19T23:17:18.076Z,11.50
2023-05-19T23:22:39.699Z,11.42
2023-05-19T23:28:01.632Z,11.39
2023-05-19T23:33:23.212Z,11.36
2023-05-19T23:38:45.155Z,11.37
2023-05-19T23:44:08.637Z,11.43
2023-05-19T23:49:30.670Z,11.44
2023-05-19T23:54:52.155Z,11.35
